Time;durP1;ratioP1;P1;durP2;ratioP2;P2;SDS_P1;SDS_P2;PMS_P1;PMS_P2;Temp;Humidity;BMP_temperature;BMP_pressure;BME280_temperature;BME280_humidity;BME280_pressure;Samples;Min_cycle;Max_cycle;Signal;HPM_P1;HPM_P2
2023/03/01 00:01:47;;;;;;;14.23;12.55;;;;;;;-3.31;85.65;103026.50;5053730;28;20048;-57
2023/03/01 00:04:12;;;;;;;16.60;13.07;;;;;;;-3.29;86.19;103020.75;5053257;28;20029;-57
2023/03/01 00:06:38;;;;;;;16.35;13.52;;;;;;;-3.33;86.63;103024.50;5053206;28;20032;-57
2023/03/01 00:09:03;;;;;;;18.15;13.80;;;;;;;-3.36;86.74;103024.16;5053724;28;20032;-57
2023/03/01 00:11:30;;;;;;;15.70;13.13;;;;;;;-3.41;87.12;103021.06;5053066;28;20116;-58
2023/03/01 00:13:58;;;;;;;16.52;13.57;;;;;;;-3.41;86.88;103018.53;5053650;28;20028;-58
2023/03/01 00:16:26;;;;;;;11.05;6.13;;;;;;;-3.30;86.45;103027.41;5053680;28;20079;-57
2023/03/01 00:18:53;;;;;;;16.42;6.50;;;;;;;-3.30;86.66;103022.38;5053076;28;20028;-58
2023/03/01 00:21:20;;;;;;;15.07;12.82;;;;;;;-3.39;87.22;103012.06;5053446;28;20029;-58
2023/03/01 00:23:48;;;;;;;14.90;13.35;;;;;;;-3.43;87.37;103020.00;5052765;28;20366;-57
2023/03/01 00:26:15;;;;;;;15.18;13.32;;;;;;;-3.46;87.58;103017.06;5053493;28;20033;-58
2023/03/01 00:28:41;;;;;;;15.70;13.45;;;;;;;-3.43;87.74;103019.06;5052957;28;20017;-58
2023/03/01 00:31:08;;;;;;;15.90;13.32;;;;;;;-3.46;87.84;103022.13;5052765;28;20028;-58
2023/03/01 00:33:33;;;;;;;15.00;13.20;;;;;;;-3.46;87.82;103024.63;5053315;28;20075;-57
2023/03/01 00:36:00;;;;;;;15.52;13.93;;;;;;;-3.54;88.32;103028.78;5053302;28;20415;-57
2023/03/01 00:38:25;;;;;;;14.68;13.18;;;;;;;-3.57;88.32;103023.34;5052439;28;20461;-58
2023/03/01 00:40:51;;;;;;;16.30;13.98;;;;;;;-3.52;89.08;103028.97;5052882;28;20162;-58
2023/03/01 00:43:16;;;;;;;15.98;13.57;;;;;;;-3.54;89.50;103025.34;5053108;28;20082;-58
2023/03/01 00:45:41;;;;;;;17.05;14.02;;;;;;;-3.51;89.16;103026.63;5052298;28;20029;-57
2023/03/01 00:48:07;;;;;;;15.63;13.25;;;;;;;-3.44;89.37;103023.22;5052843;28;20369;-58
2023/03/01 00:50:32;;;;;;;9.60;6.03;;;;;;;-3.38;88.48;103021.44;5053074;28;20108;-57
2023/03/01 00:52:58;;;;;;;14.10;12.65;;;;;;;-3.38;89.06;103012.97;5052528;28;20013;-57
2023/03/01 00:55:24;;;;;;;16.30;13.77;;;;;;;-3.36;89.08;103009.91;5052891;28;20020;-57
2023/03/01 00:57:49;;;;;;;18.08;13.52;;;;;;;-3.38;88.72;103000.34;5052945;28;20017;-57
2023/03/01 01:00:15;;;;;;;14.43;12.93;;;;;;;-3.51;89.16;102997.97;5052113;28;20090;-57
2023/03/01 01:02:40;;;;;;;16.25;13.68;;;;;;;-3.53;89.48;102997.78;5052671;28;20020;-57
2023/03/01 01:05:06;;;;;;;15.68;13.52;;;;;;;-3.58;89.50;102998.84;5052778;28;20461;-57
2023/03/01 01:07:32;;;;;;;15.32;13.80;;;;;;;-3.56;89.77;102988.97;5052030;28;20112;-57
2023/03/01 01:09:57;;;;;;;11.40;6.68;;;;;;;-3.49;88.86;102996.56;5052648;28;20037;-57
2023/03/01 01:12:22;;;;;;;15.95;13.73;;;;;;;-3.67;89.43;102996.16;5052820;28;20358;-57
2023/03/01 01:14:47;;;;;;;16.02;13.45;;;;;;;-3.66;90.05;102990.34;5051942;28;20435;-58
2023/03/01 01:17:13;;;;;;;15.63;12.93;;;;;;;-3.65;90.48;102998.84;5052418;28;20064;-58
2023/03/01 01:19:38;;;;;;;15.50;13.27;;;;;;;-3.68;90.54;102991.81;5052663;28;20112;-57
2023/03/01 01:22:03;;;;;;;15.45;13.02;;;;;;;-3.71;90.61;102986.38;5052345;28;20419;-57
2023/03/01 01:24:29;;;;;;;15.48;13.88;;;;;;;-3.76;90.35;102984.91;5052077;28;20384;-58
2023/03/01 01:26:55;;;;;;;15.73;13.65;;;;;;;-3.80;91.10;102977.72;5052309;28;20061;-57
2023/03/01 01:29:20;;;;;;;12.18;5.97;;;;;;;-3.70;90.01;102970.56;5052550;28;20028;-57
2023/03/01 01:31:45;;;;;;;15.57;12.55;;;;;;;-3.72;90.56;102972.00;5051979;28;20017;-57
2023/03/01 01:34:20;;;;;;;15.02;13.32;;;;;;;-3.79;90.64;102973.59;5052140;28;20056;-57
2023/03/01 01:36:50;;;;;;;14.63;12.85;;;;;;;-3.80;90.60;102967.63;5052146;28;20262;-57
2023/03/01 01:39:16;;;;;;;10.43;5.75;;;;;;;-3.74;89.96;102958.31;5052414;28;20104;-58
2023/03/01 01:41:42;;;;;;;15.00;12.65;;;;;;;-3.80;90.23;102957.56;5051819;28;20104;-58
2023/03/01 01:44:25;;;;;;;15.50;13.68;;;;;;;-3.87;91.26;102957.53;5051960;28;20104;-58
2023/03/01 01:47:02;;;;;;;14.98;13.20;;;;;;;-3.93;90.98;102954.28;5052513;28;20025;-58
2023/03/01 01:49:44;;;;;;;15.00;13.38;;;;;;;-3.93;91.01;102950.13;5051573;28;20029;-57
2023/03/01 01:52:27;;;;;;;11.43;5.82;;;;;;;-3.86;90.46;102951.75;5052040;28;20083;-57
2023/03/01 01:55:06;;;;;;;14.55;12.80;;;;;;;-3.99;91.53;102945.25;5052285;28;20094;-58
2023/03/01 01:57:36;;;;;;;14.68;13.10;;;;;;;-4.04;91.50;102945.38;5054454;28;20033;-58
2023/03/01 02:00:11;;;;;;;15.75;13.13;;;;;;;-4.11;92.08;102942.84;5055931;28;20064;-57
2023/03/01 02:02:38;;;;;;;15.77;12.52;;;;;;;-4.10;92.31;102944.66;5055434;28;20028;-58
2023/03/01 02:05:17;;;;;;;14.95;11.93;;;;;;;-4.15;92.65;102939.94;5055857;28;20044;-57
2023/03/01 02:07:44;;;;;;;13.38;11.85;;;;;;;-4.15;92.67;102936.53;5055941;28;20074;-57
2023/03/01 02:10:09;;;;;;;12.68;5.82;;;;;;;-4.05;91.69;102934.44;5055640;28;20017;-57
2023/03/01 02:12:35;;;;;;;14.65;12.70;;;;;;;-4.07;92.67;102928.28;5055594;28;20035;-57
2023/03/01 02:15:01;;;;;;;15.68;12.30;;;;;;;-4.11;92.79;102927.75;5055908;28;20112;-57
2023/03/01 02:17:26;;;;;;;14.60;12.63;;;;;;;-4.15;92.69;102928.97;5055138;28;20083;-58
2023/03/01 02:20:07;;;;;;;11.95;5.57;;;;;;;-4.04;92.54;102923.63;5055527;28;20116;-57
2023/03/01 02:22:34;;;;;;;16.60;12.65;;;;;;;-4.15;92.53;102923.94;5055712;28;20026;-58
2023/03/01 02:25:31;;;;;;;12.75;6.40;;;;;;;-4.06;92.13;102925.06;5055255;28;20027;-58
2023/03/01 02:28:08;;;;;;;13.70;12.25;;;;;;;-4.19;93.00;102919.25;5055229;28;20072;-57
2023/03/01 02:30:33;;;;;;;16.00;12.77;;;;;;;-4.19;92.68;102926.81;5055119;28;20036;-57
2023/03/01 02:33:02;;;;;;;15.13;12.35;;;;;;;-4.23;93.12;102927.16;5055548;28;20017;-58
2023/03/01 02:35:32;;;;;;;13.23;5.70;;;;;;;-4.12;92.47;102924.31;5055276;28;20429;-58
2023/03/01 02:38:00;;;;;;;15.85;12.68;;;;;;;-4.27;93.54;102915.78;5055105;28;20025;-58
2023/03/01 02:40:29;;;;;;;14.40;12.90;;;;;;;-4.19;94.53;102924.28;5054942;28;20021;-58
2023/03/01 02:42:57;;;;;;;14.82;12.88;;;;;;;-4.21;93.95;102925.69;5055455;28;20476;-57
2023/03/01 02:45:22;;;;;;;;;;;;;;;-4.12;92.96;102924.31;5055433;28;20025;-58
2023/03/01 02:47:48;;;;;;;14.35;12.38;;;;;;;-4.22;94.09;102926.41;5054843;28;19923;-58
2023/03/01 02:50:19;;;;;;;13.65;6.60;;;;;;;-4.11;93.70;102928.63;5055243;28;20047;-57
2023/03/01 02:52:58;;;;;;;14.55;12.77;;;;;;;-4.22;94.28;102929.84;5054387;28;20400;-58
2023/03/01 02:55:23;;;;;;;16.00;13.20;;;;;;;-4.28;94.85;102931.59;5055212;28;20028;-58
2023/03/01 02:57:52;;;;;;;14.48;12.93;;;;;;;-4.30;95.09;102926.38;5055030;28;20021;-58
2023/03/01 03:00:35;;;;;;;16.70;13.38;;;;;;;-4.30;95.46;102921.34;5054373;28;20056;-57
2023/03/01 03:03:00;;;;;;;15.73;12.82;;;;;;;-4.35;95.29;102909.81;5054845;28;20033;-57
2023/03/01 03:05:28;;;;;;;14.40;12.52;;;;;;;-4.32;95.71;102911.81;5054184;28;20021;-58
2023/03/01 03:07:54;;;;;;;13.90;11.90;;;;;;;-4.33;95.75;102915.03;5054325;28;20167;-57
2023/03/01 03:10:29;;;;;;;11.07;5.95;;;;;;;-4.23;95.09;102922.13;5054298;28;20100;-58
2023/03/01 03:13:01;;;;;;;8.93;5.30;;;;;;;-4.23;94.92;102923.00;5054482;28;20076;-58
2023/03/01 03:15:27;;;;;;;12.65;6.20;;;;;;;-4.23;94.41;102927.16;5054475;28;20060;-58
2023/03/01 03:17:53;;;;;;;13.70;11.80;;;;;;;-4.24;94.93;102916.16;5054699;28;20057;-57
2023/03/01 03:20:21;;;;;;;14.65;11.65;;;;;;;-4.30;95.90;102918.84;5054099;28;20098;-58
2023/03/01 03:22:48;;;;;;;15.40;11.70;;;;;;;-4.27;95.96;102928.38;5053966;28;20491;-58
2023/03/01 03:25:14;;;;;;;14.60;11.35;;;;;;;-4.24;96.00;102926.22;5054722;28;20472;-58
2023/03/01 03:27:42;;;;;;;14.32;11.20;;;;;;;-4.27;95.63;102924.94;5053800;28;20025;-58
2023/03/01 03:30:12;;;;;;;10.30;5.90;;;;;;;-4.18;95.16;102921.94;5054252;28;20025;-58
2023/03/01 03:32:38;;;;;;;12.23;10.93;;;;;;;-4.30;94.97;102915.41;5054203;28;20086;-58
2023/03/01 03:35:09;;;;;;;14.70;11.45;;;;;;;-4.27;96.11;102914.88;5053758;28;20478;-58
2023/03/01 03:40:20;;;;;;;14.13;11.57;;;;;;;-4.37;95.13;102912.88;5054584;28;20047;-57
2023/03/01 03:42:45;;;;;;;10.88;5.88;;;;;;;-4.28;94.83;102918.13;5053585;28;20025;-57
2023/03/01 03:45:10;;;;;;;10.38;5.43;;;;;;;-4.30;94.46;102915.41;5053968;28;20025;-57
2023/03/01 03:47:36;;;;;;;13.63;10.50;;;;;;;-4.41;95.83;102911.56;5053557;28;20489;-58
2023/03/01 03:50:01;;;;;;;14.57;11.32;;;;;;;-4.35;96.22;102917.38;5054227;28;20036;-58
2023/03/01 03:52:26;;;;;;;13.90;11.00;;;;;;;-4.40;96.46;102912.47;5053647;28;20025;-58
2023/03/01 03:54:51;;;;;;;10.63;6.00;;;;;;;-4.32;96.11;102907.66;5053589;28;20079;-57
2023/03/01 03:57:17;;;;;;;11.95;10.25;;;;;;;-4.40;95.87;102908.34;5053862;28;20112;-58
2023/03/01 03:59:42;;;;;;;13.10;11.05;;;;;;;-4.42;96.10;102907.25;5053517;28;20035;-58
2023/03/01 04:02:08;;;;;;;13.73;11.95;;;;;;;-4.45;96.99;102904.38;5053534;28;20465;-58
2023/03/01 04:04:34;;;;;;;9.55;5.28;;;;;;;-4.38;95.97;102900.97;5053649;28;20020;-58
2023/03/01 04:06:59;;;;;;;14.60;11.85;;;;;;;-4.46;96.38;102900.03;5053726;28;20354;-58
2023/03/01 04:09:24;;;;;;;15.13;12.27;;;;;;;-4.46;97.07;102897.53;5053285;28;20029;-57
2023/03/01 04:11:50;;;;;;;14.00;12.50;;;;;;;-4.49;97.17;102887.09;5053445;28;20027;-57
2023/03/01 04:14:15;;;;;;;13.93;12.00;;;;;;;-4.55;97.47;102884.69;5053655;28;20017;-58
2023/03/01 04:16:40;;;;;;;13.73;11.65;;;;;;;-4.58;97.77;102885.94;5052805;28;20025;-58
2023/03/01 04:19:06;;;;;;;15.55;12.45;;;;;;;-4.58;97.59;102888.44;5052896;28;20017;-57
2023/03/01 04:21:31;;;;;;;14.95;13.23;;;;;;;-4.59;97.71;102890.06;5053350;28;20104;-57
2023/03/01 04:23:57;;;;;;;14.07;12.32;;;;;;;-4.66;97.84;102880.88;5052988;28;20070;-57
2023/03/01 04:26:22;;;;;;;15.77;12.38;;;;;;;-4.60;98.70;102882.34;5053230;28;20067;-57
2023/03/01 04:28:49;;;;;;;12.90;11.60;;;;;;;-4.63;98.62;102878.72;5053114;28;20021;-57
2023/03/01 04:31:18;;;;;;;13.27;11.87;;;;;;;-4.67;98.62;102883.22;5053032;28;20096;-57
2023/03/01 04:33:48;;;;;;;14.77;12.43;;;;;;;-4.69;98.51;102883.00;5053193;28;20033;-57
2023/03/01 04:36:16;;;;;;;11.65;5.70;;;;;;;-4.58;98.51;102881.81;5053408;28;20029;-57
2023/03/01 04:38:42;;;;;;;15.07;13.57;;;;;;;-4.69;98.22;102877.97;5052531;28;20025;-57
2023/03/01 04:41:10;;;;;;;16.15;12.32;;;;;;;-4.68;98.86;102877.25;5052970;28;20029;-57
2023/03/01 04:43:36;;;;;;;15.73;13.27;;;;;;;-4.77;98.41;102878.63;5052759;28;20123;-57
2023/03/01 04:46:03;;;;;;;15.50;13.57;;;;;;;-4.77;99.29;102867.69;5052739;28;20040;-58
2023/03/01 04:48:30;;;;;;;15.77;13.25;;;;;;;-4.86;99.18;102868.34;5052791;28;20025;-57
2023/03/01 04:50:55;;;;;;;9.93;5.15;;;;;;;-4.71;99.10;102868.41;5052496;28;20530;-57
2023/03/01 04:53:21;;;;;;;15.10;13.50;;;;;;;-4.83;98.60;102857.75;5052756;28;20055;-58
2023/03/01 04:55:46;;;;;;;16.83;13.68;;;;;;;-4.85;99.58;102865.13;5052680;28;20048;-57
2023/03/01 04:58:11;;;;;;;12.75;6.80;;;;;;;-4.76;99.28;102860.31;5052244;28;20118;-57
2023/03/01 05:00:36;;;;;;;13.07;6.05;;;;;;;-4.75;98.28;102861.22;5052477;28;20037;-58
2023/03/01 05:03:02;;;;;;;18.60;13.52;;;;;;;-4.85;99.15;102861.72;5052800;28;20035;-57
2023/03/01 05:05:33;;;;;;;14.05;12.55;;;;;;;-4.93;99.93;102860.75;5052474;28;20083;-57
2023/03/01 05:08:02;;;;;;;15.40;13.68;;;;;;;-4.98;99.87;102862.69;5052402;28;20025;-57
2023/03/01 05:10:30;;;;;;;13.73;6.13;;;;;;;-4.87;99.16;102866.53;5052528;28;20100;-57
2023/03/01 05:12:57;;;;;;;17.40;13.07;;;;;;;-4.91;99.51;102855.91;5052462;28;20044;-57
2023/03/01 05:15:25;;;;;;;17.55;14.35;;;;;;;-4.94;100.00;102858.03;5052631;28;20025;-58
2023/03/01 05:17:51;;;;;;;15.43;13.68;;;;;;;-4.96;100.00;102856.25;5052793;28;20443;-57
2023/03/01 05:20:17;;;;;;;12.23;6.38;;;;;;;-4.85;100.00;102864.22;5051917;28;20493;-57
2023/03/01 05:22:42;;;;;;;16.38;13.85;;;;;;;-4.96;100.00;102847.78;5052106;28;20059;-58
2023/03/01 05:25:07;;;;;;;16.05;13.48;;;;;;;-4.97;100.00;102853.50;5052585;28;20036;-57
2023/03/01 05:27:34;;;;;;;13.68;6.13;;;;;;;-4.89;100.00;102841.91;5051859;28;20029;-57
2023/03/01 05:29:59;;;;;;;15.68;13.35;;;;;;;-4.94;100.00;102833.78;5052224;28;20021;-57
2023/03/01 05:32:24;;;;;;;16.05;14.25;;;;;;;-4.94;100.00;102828.78;5051947;28;20381;-57
2023/03/01 05:34:51;;;;;;;11.25;6.15;;;;;;;-4.88;100.00;102831.13;5051804;28;20035;-58
2023/03/01 05:37:17;;;;;;;11.32;6.05;;;;;;;-4.87;100.00;102835.44;5052269;28;20025;-57
2023/03/01 05:39:42;;;;;;;16.77;14.77;;;;;;;-5.01;100.00;102819.56;5052113;28;20021;-58
2023/03/01 05:42:11;;;;;;;18.25;15.23;;;;;;;-5.01;100.00;102817.06;5052046;28;20489;-57
2023/03/01 05:44:37;;;;;;;15.60;13.90;;;;;;;-5.04;100.00;102813.25;5051924;28;20037;-57
2023/03/01 05:47:02;;;;;;;10.93;5.93;;;;;;;-4.94;100.00;102815.28;5052129;28;20032;-57
2023/03/01 05:49:28;;;;;;;17.05;14.50;;;;;;;-5.04;100.00;102821.69;5051221;28;20108;-57
2023/03/01 05:51:53;;;;;;;15.93;6.68;;;;;;;-4.94;100.00;102827.84;5052342;28;20163;-58
2023/03/01 05:54:20;;;;;;;15.30;13.68;;;;;;;-5.12;100.00;102817.34;5051479;28;20025;-57
2023/03/01 05:56:45;;;;;;;20.55;14.27;;;;;;;-5.16;100.00;102812.63;5051971;28;20029;-57
2023/03/01 05:59:11;;;;;;;16.55;14.65;;;;;;;-5.17;100.00;102821.78;5052275;28;20384;-57
2023/03/01 06:01:37;;;;;;;11.20;6.68;;;;;;;-5.06;100.00;102823.13;5051312;28;20056;-57
2023/03/01 06:04:04;;;;;;;15.85;13.88;;;;;;;-5.17;100.00;102824.28;5051930;28;20079;-57
2023/03/01 06:06:29;;;;;;;22.38;14.68;;;;;;;-5.20;100.00;102818.91;5051748;28;20040;-57
2023/03/01 06:08:55;;;;;;;19.13;14.95;;;;;;;-5.18;100.00;102814.03;5051576;28;20430;-57
2023/03/01 06:11:21;;;;;;;17.27;14.80;;;;;;;-5.19;100.00;102823.22;5051710;28;20056;-57
2023/03/01 06:13:47;;;;;;;11.30;5.85;;;;;;;-5.13;100.00;102820.56;5051959;28;20029;-57
2023/03/01 06:16:13;;;;;;;18.10;14.90;;;;;;;-5.20;100.00;102810.44;5051650;28;20087;-57
2023/03/01 06:18:39;;;;;;;17.50;15.25;;;;;;;-5.17;100.00;102808.31;5051463;28;20021;-56
2023/03/01 06:21:05;;;;;;;19.20;16.02;;;;;;;-5.16;100.00;102816.03;5051981;28;20107;-57
2023/03/01 06:23:31;;;;;;;11.02;6.72;;;;;;;-5.09;100.00;102812.66;5051182;28;20049;-57
2023/03/01 06:25:57;;;;;;;20.02;16.00;;;;;;;-5.11;100.00;102809.09;5051823;28;20056;-57
2023/03/01 06:28:22;;;;;;;18.73;15.38;;;;;;;-5.02;100.00;102820.28;5052165;28;20029;-58
2023/03/01 06:30:47;;;;;;;19.33;15.55;;;;;;;-5.05;100.00;102819.00;5051204;28;20025;-57
2023/03/01 06:33:13;;;;;;;18.40;6.57;;;;;;;-4.98;100.00;102826.59;5051645;28;20491;-57
2023/03/01 06:35:38;;;;;;;17.60;15.20;;;;;;;-4.99;100.00;102815.63;5051707;28;20025;-57
2023/03/01 06:38:05;;;;;;;17.23;15.43;;;;;;;-5.04;100.00;102825.81;5051184;28;20393;-57
2023/03/01 06:40:31;;;;;;;12.48;6.85;;;;;;;-4.93;100.00;102824.63;5051494;28;20036;-57
2023/03/01 06:42:57;;;;;;;17.05;15.10;;;;;;;-4.90;100.00;102818.38;5053197;28;20050;-58
2023/03/01 06:45:23;;;;;;;18.38;14.95;;;;;;;-4.94;100.00;102827.84;5055122;28;20125;-57
2023/03/01 06:47:48;;;;;;;17.05;15.25;;;;;;;-4.89;100.00;102829.31;5054837;28;20021;-57
2023/03/01 06:50:14;;;;;;;12.60;6.93;;;;;;;-4.82;100.00;102824.34;5055244;28;20021;-57
2023/03/01 06:52:40;;;;;;;16.75;14.25;;;;;;;-4.79;100.00;102827.22;5054396;28;20081;-57
2023/03/01 06:55:06;;;;;;;16.33;14.57;;;;;;;-4.85;100.00;102823.97;5055318;28;20025;-57
2023/03/01 06:57:32;;;;;;;17.35;15.50;;;;;;;-4.83;100.00;102827.56;5054129;28;20465;-57
2023/03/01 06:59:57;;;;;;;13.05;7.85;;;;;;;-4.75;100.00;102828.50;5054859;28;20052;-57
2023/03/01 07:02:22;;;;;;;15.95;7.05;;;;;;;-4.73;100.00;102824.59;5055261;28;20048;-57
2023/03/01 07:04:52;;;;;;;19.33;15.27;;;;;;;-4.73;100.00;102815.41;5054262;28;20751;-57
2023/03/01 07:07:17;;;;;;;17.00;15.23;;;;;;;-4.77;100.00;102815.75;5054559;28;20033;-57
2023/03/01 07:09:48;;;;;;;18.38;15.07;;;;;;;-4.70;100.00;102815.81;5054782;28;20029;-57
2023/03/01 07:12:13;;;;;;;17.05;15.13;;;;;;;-4.71;100.00;102821.53;5054455;28;20029;-58
2023/03/01 07:14:38;;;;;;;17.45;15.15;;;;;;;-4.58;100.00;102815.47;5054274;28;20031;-57
2023/03/01 07:17:03;;;;;;;18.05;15.65;;;;;;;-4.52;100.00;102812.13;5054684;28;20017;-58
2023/03/01 07:19:29;;;;;;;13.25;7.43;;;;;;;-4.47;100.00;102818.63;5054048;28;20064;-58
2023/03/01 07:21:55;;;;;;;22.42;15.55;;;;;;;-4.37;100.00;102812.19;5054490;28;20028;-57
2023/03/01 07:24:21;;;;;;;14.73;7.28;;;;;;;-4.32;100.00;102824.59;5054850;28;20095;-57
2023/03/01 07:26:50;;;;;;;19.77;16.33;;;;;;;-4.15;100.00;102828.25;5053709;28;20033;-57
2023/03/01 07:29:16;;;;;;;19.95;15.20;;;;;;;-4.05;100.00;102821.09;5054445;28;20055;-57
2023/03/01 07:31:41;;;;;;;18.77;15.32;;;;;;;-3.92;100.00;102823.47;5054388;28;20354;-57
2023/03/01 07:34:06;;;;;;;13.13;7.13;;;;;;;-3.89;100.00;102826.34;5053823;28;20548;-57
2023/03/01 07:36:31;;;;;;;13.57;7.30;;;;;;;-3.79;100.00;102833.38;5053824;28;20040;-57
2023/03/01 07:38:57;;;;;;;17.05;14.55;;;;;;;-3.67;100.00;102834.84;5054536;28;20487;-57
2023/03/01 07:41:23;;;;;;;17.58;14.38;;;;;;;-3.56;100.00;102832.72;5053963;28;20021;-57
2023/03/01 07:43:48;;;;;;;13.23;6.93;;;;;;;-3.48;99.75;102831.97;5053809;28;20381;-57
2023/03/01 07:46:13;;;;;;;19.00;14.75;;;;;;;-3.34;99.67;102826.94;5054090;28;20057;-58
2023/03/01 07:48:39;;;;;;;18.35;15.07;;;;;;;-3.28;98.86;102833.41;5053206;28;20073;-58
2023/03/01 07:51:06;;;;;;;18.38;15.43;;;;;;;-3.15;98.85;102829.06;5053965;28;20495;-60
2023/03/01 07:53:33;;;;;;;17.45;14.70;;;;;;;-2.99;98.16;102825.09;5054060;28;20032;-58
2023/03/01 07:56:06;;;;;;;18.88;15.18;;;;;;;-2.89;97.49;102828.69;5052891;28;20104;-59
2023/03/01 07:58:37;;;;;;;18.67;14.50;;;;;;;-2.73;97.03;102826.31;5053696;28;20099;-57
2023/03/01 08:01:04;;;;;;;17.52;7.70;;;;;;;-2.65;97.38;102825.56;5053156;28;20400;-57
2023/03/01 08:03:30;;;;;;;19.40;14.17;;;;;;;-2.51;96.71;102820.47;5053306;28;20499;-56
2023/03/01 08:05:55;;;;;;;19.27;14.05;;;;;;;-2.34;96.22;102824.94;5054086;28;20096;-57
2023/03/01 08:08:20;;;;;;;16.10;13.63;;;;;;;-2.20;95.76;102818.00;5053417;28;20434;-57
2023/03/01 08:10:46;;;;;;;16.75;13.98;;;;;;;-2.03;94.62;102820.81;5053385;28;20131;-57
2023/03/01 08:13:12;;;;;;;17.45;14.50;;;;;;;-1.91;95.15;102827.94;5053668;28;20108;-57
2023/03/01 08:15:37;;;;;;;16.70;13.93;;;;;;;-1.74;93.47;102833.28;5052927;28;20468;-58
2023/03/01 08:18:02;;;;;;;16.20;13.15;;;;;;;-1.56;92.01;102834.41;5053282;28;20033;-57
2023/03/01 08:20:28;;;;;;;16.73;12.25;;;;;;;-1.39;90.90;102831.19;5053570;28;20372;-57
2023/03/01 08:22:53;;;;;;;14.55;12.30;;;;;;;-1.16;90.06;102822.72;5053232;28;20021;-57
2023/03/01 08:25:18;;;;;;;17.33;12.50;;;;;;;-1.00;88.38;102826.16;5053213;28;20033;-57
2023/03/01 08:27:43;;;;;;;13.52;11.95;;;;;;;-0.85;88.25;102821.84;5053206;28;20464;-57
2023/03/01 08:30:09;;;;;;;15.60;12.27;;;;;;;-0.71;86.57;102820.81;5052874;28;20032;-57
2023/03/01 08:32:37;;;;;;;16.15;12.00;;;;;;;-0.57;85.49;102819.75;5052768;28;20071;-57
2023/03/01 08:35:03;;;;;;;;;;;;;;;-0.46;87.28;102823.41;5053838;28;20029;-58
2023/03/01 08:37:30;;;;;;;18.33;12.45;;;;;;;-0.30;85.70;102819.97;5052587;28;19913;-58
2023/03/01 08:39:56;;;;;;;14.93;11.13;;;;;;;-0.18;84.16;102812.00;5053142;28;20037;-58
2023/03/01 08:42:21;;;;;;;16.42;11.98;;;;;;;-0.08;83.32;102812.97;5053620;28;20082;-58
2023/03/01 08:44:46;;;;;;;12.55;10.68;;;;;;;0.04;82.03;102809.19;5052101;28;20078;-58
2023/03/01 08:47:12;;;;;;;13.50;10.82;;;;;;;0.16;80.52;102801.94;5052994;28;20420;-58
2023/03/01 08:49:37;;;;;;;13.93;10.82;;;;;;;0.30;80.25;102789.03;5052912;28;20031;-58
2023/03/01 08:52:02;;;;;;;13.85;11.02;;;;;;;0.42;78.91;102789.38;5052370;28;20460;-58
2023/03/01 08:54:28;;;;;;;11.70;10.15;;;;;;;0.55;78.86;102794.06;5052870;28;20024;-58
2023/03/01 08:56:54;;;;;;;12.30;10.60;;;;;;;0.72;79.11;102797.41;5052950;28;20435;-57
2023/03/01 08:59:19;;;;;;;14.43;11.02;;;;;;;0.83;76.66;102799.41;5052079;28;20017;-58
2023/03/01 09:01:45;;;;;;;13.40;10.45;;;;;;;0.98;75.29;102795.88;5052423;28;20234;-57
2023/03/01 09:04:11;;;;;;;13.90;10.43;;;;;;;1.06;75.23;102801.72;5052287;28;20067;-58
2023/03/01 09:06:37;;;;;;;12.95;10.35;;;;;;;1.34;74.83;102793.38;5051580;28;20064;-58
2023/03/01 09:09:04;;;;;;;11.05;8.98;;;;;;;1.42;73.80;102784.84;5052832;28;20048;-58
2023/03/01 09:11:29;;;;;;;12.13;9.97;;;;;;;1.68;73.47;102783.94;5051935;28;20033;-58
2023/03/01 09:13:55;;;;;;;11.13;9.60;;;;;;;1.79;71.66;102778.25;5052544;28;20738;-58
2023/03/01 09:16:22;;;;;;;14.15;9.82;;;;;;;1.89;72.24;102774.97;5052464;28;20025;-57
2023/03/01 09:18:54;;;;;;;13.33;10.30;;;;;;;2.03;70.38;102771.19;5052069;28;20047;-58
2023/03/01 09:21:22;;;;;;;12.75;9.15;;;;;;;2.21;68.30;102783.13;5052244;28;20619;-58
2023/03/01 09:23:48;;;;;;;11.35;9.50;;;;;;;2.22;67.64;102776.38;5052197;28;20025;-58
2023/03/01 09:26:18;;;;;;;12.30;9.15;;;;;;;2.36;66.36;102775.13;5051838;28;20032;-58
2023/03/01 09:28:44;;;;;;;12.80;9.45;;;;;;;2.40;65.57;102765.41;5051871;28;20029;-58
2023/03/01 09:31:12;;;;;;;11.90;8.77;;;;;;;2.46;65.11;102759.97;5052208;28;20365;-58
2023/03/01 09:33:38;;;;;;;;;;;;;;;2.70;70.40;102757.91;5052207;28;20025;-58
2023/03/01 09:36:06;;;;;;;11.73;9.05;;;;;;;2.79;63.56;102763.88;5052206;28;20003;-58
2023/03/01 09:38:33;;;;;;;13.77;8.65;;;;;;;3.26;62.78;102759.63;5052319;28;20029;-58
2023/03/01 09:40:59;;;;;;;11.57;9.80;;;;;;;3.63;62.26;102750.19;5051588;28;20025;-58
2023/03/01 09:43:39;;;;;;;9.75;8.63;;;;;;;3.79;60.16;102756.63;5052462;28;20044;-58
2023/03/01 09:46:09;;;;;;;11.63;9.13;;;;;;;4.29;58.42;102759.25;5052139;28;20111;-58
2023/03/01 09:48:44;;;;;;;13.52;8.77;;;;;;;4.66;57.58;102749.63;5051295;28;20580;-58
2023/03/01 09:51:19;;;;;;;11.40;9.18;;;;;;;4.73;55.77;102740.81;5052305;28;20032;-58
2023/03/01 09:53:44;;;;;;;10.60;8.30;;;;;;;5.10;54.48;102736.19;5051511;28;20025;-58
2023/03/01 09:56:20;;;;;;;11.48;8.10;;;;;;;5.50;53.46;102746.22;5051974;28;20430;-58
2023/03/01 09:58:59;;;;;;;10.68;8.30;;;;;;;6.06;52.59;102741.31;5052275;28;20029;-58
2023/03/01 10:01:36;;;;;;;11.25;8.57;;;;;;;6.28;52.16;102735.31;5051508;28;20408;-58
2023/03/01 10:04:22;;;;;;;14.20;8.90;;;;;;;6.64;52.03;102736.34;5051869;28;20441;-58
2023/03/01 10:07:29;;;;;;;11.45;8.65;;;;;;;6.75;50.95;102726.13;5052069;28;20045;-58
2023/03/01 10:09:55;;;;;;;9.82;7.10;;;;;;;6.75;47.05;102725.22;5052076;28;20025;-58
2023/03/01 10:12:26;;;;;;;10.98;8.60;;;;;;;6.57;47.38;102720.50;5051998;28;20071;-58
2023/03/01 10:15:02;;;;;;;10.95;8.30;;;;;;;7.11;45.70;102710.78;5051739;28;20051;-58
2023/03/01 10:17:44;;;;;;;12.85;8.40;;;;;;;7.19;48.22;102714.84;5052191;28;20047;-58
2023/03/01 10:20:15;;;;;;;12.25;7.55;;;;;;;7.40;43.97;102704.38;5055956;28;20040;-57
2023/03/01 10:22:41;;;;;;;11.57;7.75;;;;;;;7.28;44.99;102704.34;5055034;28;20032;-58
2023/03/01 10:25:12;;;;;;;10.70;7.72;;;;;;;7.64;43.37;102709.47;5055443;28;20022;-58
2023/03/01 10:28:01;;;;;;;9.75;7.78;;;;;;;7.86;44.05;102704.19;5055544;28;20033;-58
2023/03/01 10:30:38;;;;;;;11.18;7.75;;;;;;;7.97;43.52;102686.97;5054886;28;20103;-58
2023/03/01 10:33:25;;;;;;;10.43;8.30;;;;;;;8.00;43.57;102689.75;5055584;28;20361;-58
2023/03/01 10:35:51;;;;;;;;;;;;;;;8.84;46.23;102684.31;5055102;28;20041;-58
2023/03/01 10:38:18;;;;;;;10.10;7.70;;;;;;;8.51;41.59;102689.00;5055355;28;20335;-58
2023/03/01 10:41:05;;;;;;;10.02;7.85;;;;;;;8.71;43.09;102695.50;5055350;28;20028;-58
2023/03/01 10:43:53;;;;;;;8.55;7.22;;;;;;;8.86;44.20;102685.34;5054828;28;20062;-58
2023/03/01 10:46:22;;;;;;;11.73;7.63;;;;;;;9.43;40.41;102682.97;5055199;28;20028;-58
2023/03/01 10:49:16;;;;;;;8.55;6.82;;;;;;;9.50;41.63;102684.25;5055297;28;20032;-58
2023/03/01 10:51:44;;;;;;;9.98;7.20;;;;;;;9.25;38.15;102681.81;5054402;28;20021;-58
2023/03/01 10:54:36;;;;;;;9.93;7.32;;;;;;;9.50;40.94;102684.25;5055134;28;20029;-58
2023/03/01 10:57:03;;;;;;;10.70;7.70;;;;;;;9.33;38.40;102684.06;5053386;28;20119;-58
2023/03/01 10:59:37;;;;;;;12.48;7.97;;;;;;;9.46;38.44;102680.59;5054640;28;20479;-58
2023/03/01 11:02:28;;;;;;;10.77;7.57;;;;;;;9.67;40.82;102672.44;5055270;28;20051;-58
2023/03/01 11:04:59;;;;;;;9.77;7.70;;;;;;;9.19;38.32;102666.84;5054616;28;20029;-58
2023/03/01 11:07:24;;;;;;;9.95;7.82;;;;;;;8.81;38.91;102666.13;5054871;28;20029;-58
2023/03/01 11:09:49;;;;;;;9.55;7.53;;;;;;;8.31;39.83;102667.06;5054830;28;20103;-58
2023/03/01 11:12:16;;;;;;;11.52;8.52;;;;;;;8.60;40.10;102663.03;5054140;28;20436;-58
2023/03/01 11:14:50;;;;;;;9.77;7.15;;;;;;;9.03;39.71;102672.69;5054682;28;20092;-58
2023/03/01 11:17:31;;;;;;;11.65;8.10;;;;;;;8.92;39.55;102676.25;5054754;28;20258;-58
2023/03/01 11:20:19;;;;;;;10.27;7.97;;;;;;;9.18;39.39;102683.97;5054002;28;20025;-58
2023/03/01 11:22:52;;;;;;;10.02;7.55;;;;;;;9.11;39.30;102683.50;5054753;28;20029;-58